Time;durP1;ratioP1;P1;durP2;ratioP2;P2;SDS_P1;SDS_P2;PMS_P1;PMS_P2;Temp;Humidity;BMP_temperature;BMP_pressure;BME280_temperature;BME280_humidity;BME280_pressure;Samples;Min_cycle;Max_cycle;Signal;HPM_P1;HPM_P2
2023/12/10 00:00:37;;;;;;;29.63;2.97;;;;;;;;;;5108776;28;20069;-71
2023/12/10 00:03:04;;;;;;;23.67;2.65;;;;;;;;;;5108311;28;20051;-71
2023/12/10 00:05:32;;;;;;;24.30;3.05;;;;;;;;;;5108769;28;20503;-71
2023/12/10 00:07:59;;;;;;;28.52;3.70;;;;;;;;;;5101435;28;20048;-71
2023/12/10 00:10:26;;;;;;;23.75;2.72;;;;;;;;;;5084789;28;20055;-71
2023/12/10 00:12:54;;;;;;;16.80;2.33;;;;;;;;;;5103943;28;20057;-71
2023/12/10 00:15:23;;;;;;;23.58;3.33;;;;;;;;;;5105878;28;20062;-71
2023/12/10 00:17:50;;;;;;;20.08;2.22;;;;;;;;;;5109035;28;20053;-71
2023/12/10 00:20:17;;;;;;;20.25;2.30;;;;;;;;;;5086672;28;20083;-71
2023/12/10 00:22:46;;;;;;;30.80;3.92;;;;;;;;;;5109348;28;20122;-71
2023/12/10 00:25:13;;;;;;;18.13;2.45;;;;;;;;;;5104732;28;20066;-70
2023/12/10 00:27:40;;;;;;;21.83;2.25;;;;;;;;;;5090176;28;20039;-71
2023/12/10 00:30:08;;;;;;;22.50;3.00;;;;;;;;;;5107121;28;20058;-71
2023/12/10 00:32:37;;;;;;;20.90;3.45;;;;;;;;;;5104227;28;20051;-71
2023/12/10 00:35:05;;;;;;;16.38;2.55;;;;;;;;;;5104377;28;20050;-71
2023/12/10 00:37:32;;;;;;;16.08;1.67;;;;;;;;;;5108681;28;20079;-71
2023/12/10 00:40:00;;;;;;;20.67;2.20;;;;;;;;;;5106323;28;20039;-71
2023/12/10 00:42:27;;;;;;;26.90;2.28;;;;;;;;;;5083995;28;20138;-71
2023/12/10 00:44:54;;;;;;;26.90;3.97;;;;;;;;;;5106777;28;20055;-71
2023/12/10 00:47:21;;;;;;;23.77;2.80;;;;;;;;;;5102433;28;20066;-70
2023/12/10 00:49:50;;;;;;;26.45;3.15;;;;;;;;;;5099847;28;20048;-71
2023/12/10 00:52:18;;;;;;;23.63;2.63;;;;;;;;;;5089477;28;20054;-70
2023/12/10 00:54:45;;;;;;;27.45;3.63;;;;;;;;;;5109541;28;20048;-71
2023/12/10 00:57:12;;;;;;;18.88;2.15;;;;;;;;;;5112058;28;20066;-70
2023/12/10 00:59:40;;;;;;;23.52;2.33;;;;;;;;;;5112351;28;20062;-70
2023/12/10 01:02:07;;;;;;;27.48;3.15;;;;;;;;;;5103513;28;20047;-70
2023/12/10 01:04:35;;;;;;;18.83;2.35;;;;;;;;;;5090142;28;20487;-70
2023/12/10 01:07:03;;;;;;;21.10;2.78;;;;;;;;;;5109450;28;20109;-70
2023/12/10 01:09:32;;;;;;;32.42;3.08;;;;;;;;;;5104999;28;20421;-71
2023/12/10 01:12:00;;;;;;;30.65;3.72;;;;;;;;;;5110866;28;20504;-71
2023/12/10 01:14:27;;;;;;;37.72;3.70;;;;;;;;;;5109644;28;20070;-71
2023/12/10 01:16:54;;;;;;;35.83;3.40;;;;;;;;;;5105476;28;20047;-71
2023/12/10 01:19:22;;;;;;;25.25;2.90;;;;;;;;;;5107931;28;20047;-71
2023/12/10 01:21:49;;;;;;;33.45;3.33;;;;;;;;;;5090907;28;20063;-71
2023/12/10 01:24:18;;;;;;;30.58;2.90;;;;;;;;;;5109815;28;20051;-71
2023/12/10 01:26:45;;;;;;;26.58;2.72;;;;;;;;;;5096535;28;20386;-71
2023/12/10 01:29:13;;;;;;;31.48;3.50;;;;;;;;;;5091966;28;20068;-71
2023/12/10 01:31:40;;;;;;;31.83;3.22;;;;;;;;;;5105690;28;20131;-71
2023/12/10 01:34:07;;;;;;;33.00;3.40;;;;;;;;;;5105521;28;20056;-71
2023/12/10 01:36:35;;;;;;;34.38;4.10;;;;;;;;;;5097194;28;20406;-71
2023/12/10 01:39:03;;;;;;;31.02;2.55;;;;;;;;;;5104163;28;20090;-71
2023/12/10 01:41:32;;;;;;;37.00;2.92;;;;;;;;;;5104089;28;20059;-71
2023/12/10 01:43:59;;;;;;;32.22;2.90;;;;;;;;;;5110182;28;20049;-71
2023/12/10 01:46:26;;;;;;;30.77;3.92;;;;;;;;;;5102614;28;20061;-71
2023/12/10 01:48:55;;;;;;;24.05;2.40;;;;;;;;;;5101833;28;20490;-71
2023/12/10 01:51:23;;;;;;;27.38;2.65;;;;;;;;;;5097660;28;20051;-71
2023/12/10 01:53:50;;;;;;;33.38;2.88;;;;;;;;;;5102268;28;20054;-71
2023/12/10 01:56:18;;;;;;;25.13;3.03;;;;;;;;;;5107443;28;20047;-71
2023/12/10 01:58:50;;;;;;;25.20;2.22;;;;;;;;;;5089931;28;20409;-71
2023/12/10 02:01:18;;;;;;;25.90;2.60;;;;;;;;;;5109190;28;20384;-71
2023/12/10 02:03:46;;;;;;;19.58;2.08;;;;;;;;;;5101683;28;20390;-71
2023/12/10 02:06:13;;;;;;;24.60;2.85;;;;;;;;;;5110367;28;20374;-71
2023/12/10 02:08:41;;;;;;;27.90;2.90;;;;;;;;;;5108049;28;20083;-71
2023/12/10 02:11:08;;;;;;;26.40;2.88;;;;;;;;;;5094865;28;20052;-71
2023/12/10 02:13:36;;;;;;;29.75;3.28;;;;;;;;;;5099835;28;20113;-71
2023/12/10 02:16:06;;;;;;;22.15;2.95;;;;;;;;;;5109645;28;20502;-71
2023/12/10 02:18:33;;;;;;;24.48;2.95;;;;;;;;;;5104120;28;20055;-71
2023/12/10 02:21:00;;;;;;;28.85;3.65;;;;;;;;;;5106830;28;20506;-70
2023/12/10 02:23:33;;;;;;;23.98;2.33;;;;;;;;;;5108670;28;20083;-71
2023/12/10 02:26:02;;;;;;;24.25;2.42;;;;;;;;;;5101554;28;20406;-71
2023/12/10 02:28:29;;;;;;;20.98;2.53;;;;;;;;;;5101772;28;20040;-71
2023/12/10 02:30:57;;;;;;;23.15;2.17;;;;;;;;;;5092360;28;20454;-72
2023/12/10 02:33:24;;;;;;;25.80;2.38;;;;;;;;;;5110272;28;20577;-71
2023/12/10 02:35:51;;;;;;;17.80;2.03;;;;;;;;;;5110027;28;20058;-71
2023/12/10 02:38:21;;;;;;;20.73;1.95;;;;;;;;;;5104858;28;20047;-71
2023/12/10 02:40:49;;;;;;;36.03;3.10;;;;;;;;;;5106225;28;20496;-71
2023/12/10 02:43:19;;;;;;;23.98;2.10;;;;;;;;;;5108720;28;20047;-71
2023/12/10 02:45:47;;;;;;;25.48;2.95;;;;;;;;;;5110268;28;20056;-71
2023/12/10 02:48:17;;;;;;;24.77;3.03;;;;;;;;;;5087125;28;20056;-71
2023/12/10 02:50:44;;;;;;;23.80;2.25;;;;;;;;;;5103145;28;20047;-71
2023/12/10 02:53:11;;;;;;;15.10;1.77;;;;;;;;;;5095927;28;20048;-71
2023/12/10 02:55:39;;;;;;;29.65;2.88;;;;;;;;;;5095860;28;20070;-71
2023/12/10 02:58:06;;;;;;;27.48;2.78;;;;;;;;;;5109350;28;20036;-71
2023/12/10 03:00:35;;;;;;;28.92;2.72;;;;;;;;;;5101139;28;20464;-71
2023/12/10 03:03:02;;;;;;;17.02;2.22;;;;;;;;;;5091105;28;20055;-71
2023/12/10 03:05:30;;;;;;;26.70;2.47;;;;;;;;;;5105566;28;20139;-71
2023/12/10 03:07:57;;;;;;;25.30;3.17;;;;;;;;;;5107990;28;20055;-71
2023/12/10 03:10:24;;;;;;;31.17;2.75;;;;;;;;;;5102946;28;20066;-71
2023/12/10 03:12:52;;;;;;;31.10;2.63;;;;;;;;;;5100872;28;20055;-71
2023/12/10 03:15:19;;;;;;;27.65;3.25;;;;;;;;;;5103109;28;20058;-71
2023/12/10 03:17:47;;;;;;;32.78;2.97;;;;;;;;;;5106383;28;20044;-71
2023/12/10 03:20:15;;;;;;;24.63;2.30;;;;;;;;;;5105795;28;20138;-71
2023/12/10 03:22:42;;;;;;;27.25;2.70;;;;;;;;;;5107218;28;20496;-72
2023/12/10 03:25:10;;;;;;;39.42;2.90;;;;;;;;;;5105233;28;20127;-70
2023/12/10 03:27:37;;;;;;;37.72;2.72;;;;;;;;;;5104218;28;20055;-70
2023/12/10 03:30:04;;;;;;;35.30;4.22;;;;;;;;;;5105371;28;20090;-71
2023/12/10 03:32:32;;;;;;;28.15;2.50;;;;;;;;;;5087783;28;20044;-71
2023/12/10 03:35:01;;;;;;;23.58;2.67;;;;;;;;;;5108612;28;20048;-71
2023/12/10 03:37:28;;;;;;;35.03;2.50;;;;;;;;;;5103984;28;20457;-71
2023/12/10 03:39:55;;;;;;;29.75;2.80;;;;;;;;;;5106272;28;20471;-71
2023/12/10 03:42:23;;;;;;;30.20;2.58;;;;;;;;;;5105904;28;20109;-71
2023/12/10 03:44:50;;;;;;;21.80;2.33;;;;;;;;;;5107498;28;20056;-71
2023/12/10 03:47:17;;;;;;;22.00;1.92;;;;;;;;;;5095159;28;20494;-70
2023/12/10 03:49:45;;;;;;;22.20;2.63;;;;;;;;;;5107750;28;20534;-71
2023/12/10 03:52:14;;;;;;;27.42;3.40;;;;;;;;;;5105544;28;20506;-71
2023/12/10 03:54:41;;;;;;;30.83;3.70;;;;;;;;;;5089235;28;20104;-71
2023/12/10 03:57:09;;;;;;;26.05;2.88;;;;;;;;;;5103928;28;20055;-71
2023/12/10 03:59:36;;;;;;;23.85;2.85;;;;;;;;;;5087339;28;20058;-71
2023/12/10 04:02:04;;;;;;;37.40;3.25;;;;;;;;;;5086460;28;20484;-71
2023/12/10 04:04:31;;;;;;;31.77;2.97;;;;;;;;;;5106485;28;20039;-71
2023/12/10 04:06:59;;;;;;;30.63;4.05;;;;;;;;;;5089003;28;20147;-71
2023/12/10 04:09:27;;;;;;;33.08;2.63;;;;;;;;;;5095821;28;20051;-71
2023/12/10 04:11:56;;;;;;;33.60;2.78;;;;;;;;;;5097741;28;20059;-71
2023/12/10 04:14:24;;;;;;;43.17;4.55;;;;;;;;;;5102839;28;20410;-71
2023/12/10 04:16:51;;;;;;;40.13;3.45;;;;;;;;;;5108857;28;20437;-71
2023/12/10 04:19:18;;;;;;;34.63;2.95;;;;;;;;;;5097862;28;20510;-71
2023/12/10 04:21:45;;;;;;;32.10;3.30;;;;;;;;;;5098639;28;20415;-71
2023/12/10 04:24:15;;;;;;;35.70;5.90;;;;;;;;;;5083832;28;20151;-71
2023/12/10 04:26:44;;;;;;;27.27;2.92;;;;;;;;;;5103184;28;20071;-71
2023/12/10 04:29:11;;;;;;;37.35;3.00;;;;;;;;;;5106554;28;20075;-71
2023/12/10 04:31:38;;;;;;;35.25;2.75;;;;;;;;;;5108713;28;20051;-71
2023/12/10 04:34:05;;;;;;;34.58;2.83;;;;;;;;;;5089475;28;20059;-71
2023/12/10 04:36:33;;;;;;;43.00;3.20;;;;;;;;;;5087803;28;20059;-71
2023/12/10 04:39:00;;;;;;;31.30;3.78;;;;;;;;;;5099109;28;20044;-72
2023/12/10 04:41:27;;;;;;;29.83;3.20;;;;;;;;;;5105038;28;20160;-71
2023/12/10 04:43:56;;;;;;;24.27;2.35;;;;;;;;;;5108609;28;20103;-71
2023/12/10 04:46:23;;;;;;;33.78;2.80;;;;;;;;;;5105783;28;20044;-71
2023/12/10 04:48:51;;;;;;;27.65;2.28;;;;;;;;;;5108141;28;20056;-71
2023/12/10 04:51:18;;;;;;;21.58;1.90;;;;;;;;;;5103425;28;20070;-71
2023/12/10 04:53:45;;;;;;;11.68;1.90;;;;;;;;;;5082307;28;20044;-70
2023/12/10 04:56:13;;;;;;;13.10;1.42;;;;;;;;;;5088706;28;20055;-72
2023/12/10 04:58:40;;;;;;;13.52;1.40;;;;;;;;;;5107333;28;20039;-71
2023/12/10 05:01:09;;;;;;;13.23;2.13;;;;;;;;;;5089312;28;20056;-71
2023/12/10 05:03:36;;;;;;;12.07;1.25;;;;;;;;;;5102377;28;20059;-71
2023/12/10 05:06:03;;;;;;;18.10;1.80;;;;;;;;;;5106573;28;20151;-71
2023/12/10 05:08:31;;;;;;;17.25;1.58;;;;;;;;;;5102993;28;20040;-72
2023/12/10 05:10:58;;;;;;;10.27;2.20;;;;;;;;;;5105121;28;20494;-71
2023/12/10 05:13:25;;;;;;;12.32;1.58;;;;;;;;;;5084913;28;20439;-72
2023/12/10 05:15:53;;;;;;;13.30;1.65;;;;;;;;;;5105236;28;20502;-71
2023/12/10 05:18:21;;;;;;;15.15;1.20;;;;;;;;;;5084199;28;20044;-71
2023/12/10 05:20:50;;;;;;;16.65;1.48;;;;;;;;;;5101402;28;20040;-71
2023/12/10 05:23:17;;;;;;;15.70;1.85;;;;;;;;;;5087199;28;20058;-71
2023/12/10 05:25:44;;;;;;;18.48;1.50;;;;;;;;;;5105136;28;20562;-71
2023/12/10 05:28:11;;;;;;;29.50;2.40;;;;;;;;;;5102963;28;20471;-71
2023/12/10 05:30:39;;;;;;;25.55;2.58;;;;;;;;;;5097889;28;20055;-71
2023/12/10 05:33:06;;;;;;;18.63;2.13;;;;;;;;;;5087701;28;20058;-71
2023/12/10 05:35:35;;;;;;;31.67;2.53;;;;;;;;;;5104891;28;20051;-71
2023/12/10 05:38:03;;;;;;;20.67;1.80;;;;;;;;;;5109022;28;20046;-71
2023/12/10 05:40:30;;;;;;;23.75;1.92;;;;;;;;;;5110285;28;20079;-71
2023/12/10 05:42:58;;;;;;;26.00;1.73;;;;;;;;;;5091924;28;20056;-71
2023/12/10 05:45:27;;;;;;;21.15;2.35;;;;;;;;;;5086995;28;20054;-71
2023/12/10 05:47:54;;;;;;;27.95;2.40;;;;;;;;;;5089884;28;20052;-71
2023/12/10 05:50:21;;;;;;;28.30;2.05;;;;;;;;;;5090215;28;20092;-71
2023/12/10 05:52:50;;;;;;;23.23;2.88;;;;;;;;;;5108662;28;20052;-71
2023/12/10 05:55:17;;;;;;;27.45;1.88;;;;;;;;;;5109240;28;20071;-71
2023/12/10 05:57:45;;;;;;;25.83;1.70;;;;;;;;;;5108958;28;20142;-71
2023/12/10 06:00:12;;;;;;;23.80;1.88;;;;;;;;;;5087410;28;20055;-71
2023/12/10 06:02:40;;;;;;;22.23;1.98;;;;;;;;;;5102632;28;20047;-71
2023/12/10 06:05:07;;;;;;;25.00;2.00;;;;;;;;;;5108723;28;20059;-71
2023/12/10 06:07:34;;;;;;;26.38;2.13;;;;;;;;;;5107850;28;20056;-71
2023/12/10 06:10:04;;;;;;;23.40;1.75;;;;;;;;;;5105249;28;20043;-71
2023/12/10 06:12:31;;;;;;;26.00;2.15;;;;;;;;;;5105603;28;20135;-71
2023/12/10 06:14:58;;;;;;;23.50;2.28;;;;;;;;;;5086368;28;20052;-71
2023/12/10 06:17:25;;;;;;;17.27;1.65;;;;;;;;;;5106291;28;20055;-71
2023/12/10 06:19:53;;;;;;;19.13;2.00;;;;;;;;;;5084983;28;20055;-70
2023/12/10 06:22:20;;;;;;;19.45;1.63;;;;;;;;;;5090746;28;20057;-71
2023/12/10 06:24:48;;;;;;;16.73;1.85;;;;;;;;;;5105621;28;20448;-71
2023/12/10 06:27:17;;;;;;;27.30;2.20;;;;;;;;;;5103301;28;20486;-71
2023/12/10 06:29:44;;;;;;;21.55;1.63;;;;;;;;;;5106321;28;20048;-71
2023/12/10 06:32:11;;;;;;;22.73;1.88;;;;;;;;;;5091463;28;20047;-71
2023/12/10 06:34:39;;;;;;;13.45;1.92;;;;;;;;;;5091862;28;20058;-70
2023/12/10 06:37:06;;;;;;;11.07;1.20;;;;;;;;;;5109516;28;20047;-70
2023/12/10 06:39:33;;;;;;;17.02;1.50;;;;;;;;;;5110250;28;20055;-70
2023/12/10 06:42:01;;;;;;;16.50;1.23;;;;;;;;;;5108884;28;20050;-70
2023/12/10 06:44:28;;;;;;;25.50;1.73;;;;;;;;;;5108187;28;20051;-70
2023/12/10 06:46:55;;;;;;;25.88;1.67;;;;;;;;;;5109386;28;20177;-70
2023/12/10 06:49:23;;;;;;;15.77;1.55;;;;;;;;;;5106258;28;20055;-70
2023/12/10 06:51:50;;;;;;;26.98;2.50;;;;;;;;;;5108707;28;20073;-71
2023/12/10 06:54:17;;;;;;;31.80;1.95;;;;;;;;;;5104605;28;20044;-71
2023/12/10 06:56:44;;;;;;;15.65;1.70;;;;;;;;;;5108237;28;20043;-71
2023/12/10 06:59:12;;;;;;;15.73;1.45;;;;;;;;;;5106735;28;20083;-71
2023/12/10 07:01:40;;;;;;;19.85;2.20;;;;;;;;;;5109595;27;20050;-71
2023/12/10 07:04:09;;;;;;;17.48;1.75;;;;;;;;;;5108099;28;20135;-71
2023/12/10 07:06:36;;;;;;;21.48;2.03;;;;;;;;;;5090891;28;20486;-71
2023/12/10 07:09:06;;;;;;;22.67;2.03;;;;;;;;;;5102514;28;20123;-71
2023/12/10 07:11:34;;;;;;;19.88;2.25;;;;;;;;;;5085181;28;20048;-70
2023/12/10 07:14:01;;;;;;;19.92;2.03;;;;;;;;;;5102313;28;20040;-71
2023/12/10 07:16:29;;;;;;;27.30;3.15;;;;;;;;;;5099157;28;20051;-71
2023/12/10 07:18:57;;;;;;;21.92;1.98;;;;;;;;;;5086089;28;20079;-71
2023/12/10 07:21:24;;;;;;;34.65;3.97;;;;;;;;;;5098188;28;20052;-71
2023/12/10 07:23:52;;;;;;;23.50;1.90;;;;;;;;;;5096817;28;20047;-72
2023/12/10 07:26:23;;;;;;;20.30;2.10;;;;;;;;;;5098229;28;20044;-71
2023/12/10 07:28:51;;;;;;;11.00;1.38;;;;;;;;;;5102108;28;20063;-71
2023/12/10 07:31:18;;;;;;;19.55;1.80;;;;;;;;;;5103758;28;20043;-71
2023/12/10 07:33:45;;;;;;;25.55;2.20;;;;;;;;;;5107830;28;20048;-71
2023/12/10 07:36:14;;;;;;;25.00;2.28;;;;;;;;;;5108889;28;20097;-71
2023/12/10 07:38:41;;;;;;;28.63;2.13;;;;;;;;;;5101980;28;20048;-71
2023/12/10 07:41:08;;;;;;;26.67;2.38;;;;;;;;;;5105168;28;20051;-71
2023/12/10 07:43:36;;;;;;;33.03;2.60;;;;;;;;;;5104887;28;20051;-71
2023/12/10 07:46:03;;;;;;;32.17;2.97;;;;;;;;;;5104771;28;20048;-71
2023/12/10 07:48:30;;;;;;;44.85;3.38;;;;;;;;;;5106960;28;20039;-71
2023/12/10 07:50:58;;;;;;;35.55;2.75;;;;;;;;;;5105357;28;20451;-71
2023/12/10 07:53:27;;;;;;;32.13;2.95;;;;;;;;;;5088909;28;20054;-71
2023/12/10 07:55:54;;;;;;;40.40;3.08;;;;;;;;;;5084738;28;20058;-71
2023/12/10 07:58:22;;;;;;;36.60;3.35;;;;;;;;;;5105097;28;20039;-70
2023/12/10 08:00:50;;;;;;;35.00;2.63;;;;;;;;;;5084446;28;20054;-70
2023/12/10 08:03:17;;;;;;;22.00;2.25;;;;;;;;;;5106628;28;20409;-70
2023/12/10 08:05:44;;;;;;;26.77;2.75;;;;;;;;;;5095862;28;20536;-70
2023/12/10 08:08:11;;;;;;;38.50;3.17;;;;;;;;;;5106614;28;20522;-69
2023/12/10 08:10:40;;;;;;;30.42;2.33;;;;;;;;;;5080341;28;20534;-70
2023/12/10 08:13:08;;;;;;;46.42;3.17;;;;;;;;;;5104539;28;20054;-70
2023/12/10 08:15:35;;;;;;;45.92;3.20;;;;;;;;;;5089115;28;20141;-70
2023/12/10 08:18:02;;;;;;;37.42;3.00;;;;;;;;;;5086884;28;20051;-70
2023/12/10 08:20:30;;;;;;;39.30;3.75;;;;;;;;;;5100426;28;20058;-70
2023/12/10 08:22:57;;;;;;;29.45;2.55;;;;;;;;;;5063874;28;20041;-70
2023/12/10 08:25:24;;;;;;;37.75;2.90;;;;;;;;;;5057708;28;20496;-70
2023/12/10 08:27:53;;;;;;;29.52;3.20;;;;;;;;;;5058486;28;20110;-71
2023/12/10 08:30:20;;;;;;;29.45;2.90;;;;;;;;;;5066410;28;20059;-70
2023/12/10 08:32:48;;;;;;;21.70;2.58;;;;;;;;;;5057883;28;20055;-71
2023/12/10 08:35:15;;;;;;;31.05;2.67;;;;;;;;;;5065631;28;20106;-71
2023/12/10 08:37:42;;;;;;;32.78;2.97;;;;;;;;;;5066987;28;20059;-76
2023/12/10 08:40:10;;;;;;;31.85;2.25;;;;;;;;;;5055073;28;20059;-70
2023/12/10 08:42:37;;;;;;;30.02;2.90;;;;;;;;;;5066045;28;20380;-70
2023/12/10 08:45:08;;;;;;;35.25;2.80;;;;;;;;;;5065747;28;20410;-70
2023/12/10 08:47:36;;;;;;;40.58;3.28;;;;;;;;;;5059968;28;20053;-71
2023/12/10 08:50:04;;;;;;;26.08;2.58;;;;;;;;;;5066172;28;20068;-70
2023/12/10 08:52:31;;;;;;;20.77;2.13;;;;;;;;;;5060745;28;20037;-70
2023/12/10 08:54:59;;;;;;;30.02;2.47;;;;;;;;;;5066353;28;20154;-70
2023/12/10 08:57:26;;;;;;;25.63;2.03;;;;;;;;;;5062376;28;20177;-70
2023/12/10 08:59:59;;;;;;;20.50;2.38;;;;;;;;;;5060335;28;20053;-70
2023/12/10 09:02:28;;;;;;;24.42;2.28;;;;;;;;;;5059888;28;20115;-69
2023/12/10 09:04:56;;;;;;;16.75;2.08;;;;;;;;;;5063314;28;20048;-70
2023/12/10 09:07:23;;;;;;;18.40;2.45;;;;;;;;;;5061702;28;20056;-69
2023/12/10 09:09:50;;;;;;;18.27;1.73;;;;;;;;;;5054513;28;20060;-69
2023/12/10 09:12:17;;;;;;;23.85;2.28;;;;;;;;;;5065641;28;20728;-69
2023/12/10 09:14:45;;;;;;;24.10;2.53;;;;;;;;;;5063982;28;20111;-70
2023/12/10 09:17:12;;;;;;;23.42;1.73;;;;;;;;;;5062017;28;20041;-70
2023/12/10 09:19:41;;;;;;;26.33;2.13;;;;;;;;;;5064835;28;20040;-69
2023/12/10 09:22:08;;;;;;;18.85;2.38;;;;;;;;;;5098902;28;20048;-70
2023/12/10 09:24:35;;;;;;;23.23;2.55;;;;;;;;;;5104821;28;20109;-70
2023/12/10 09:27:03;;;;;;;27.30;2.30;;;;;;;;;;5111283;28;20138;-70
2023/12/10 09:29:35;;;;;;;28.70;3.00;;;;;;;;;;5104164;28;20054;-69
2023/12/10 09:32:03;;;;;;;25.90;2.38;;;;;;;;;;5101926;28;20078;-69
2023/12/10 09:34:30;;;;;;;18.45;1.50;;;;;;;;;;5099058;28;20048;-69
2023/12/10 09:36:59;;;;;;;24.05;2.30;;;;;;;;;;5100784;28;20495;-70
2023/12/10 09:39:26;;;;;;;20.65;1.73;;;;;;;;;;5107798;28;20493;-69
2023/12/10 09:41:54;;;;;;;23.23;2.10;;;;;;;;;;5092014;28;20054;-71
2023/12/10 09:44:22;;;;;;;15.45;1.80;;;;;;;;;;5105170;28;20051;-69
2023/12/10 09:46:49;;;;;;;29.25;2.40;;;;;;;;;;5090415;28;20067;-70
2023/12/10 09:49:17;;;;;;;19.08;1.90;;;;;;;;;;5091071;28;20134;-69
2023/12/10 09:51:44;;;;;;;20.38;1.73;;;;;;;;;;5091995;28;20091;-70
2023/12/10 09:54:13;;;;;;;19.70;1.80;;;;;;;;;;5108861;28;20048;-70
2023/12/10 09:56:41;;;;;;;23.75;2.70;;;;;;;;;;5088882;28;20062;-70
2023/12/10 09:59:08;;;;;;;31.88;3.17;;;;;;;;;;5091754;28;20067;-70
2023/12/10 10:01:35;;;;;;;35.05;3.58;;;;;;;;;;5090414;28;20048;-70
2023/12/10 10:04:03;;;;;;;45.42;3.80;;;;;;;;;;5109803;28;20047;-70
2023/12/10 10:06:31;;;;;;;27.75;2.85;;;;;;;;;;5091264;28;20066;-70
2023/12/10 10:08:58;;;;;;;30.73;3.55;;;;;;;;;;5107456;28;20048;-70
2023/12/10 10:11:26;;;;;;;42.30;3.72;;;;;;;;;;5084155;28;20056;-71
2023/12/10 10:13:54;;;;;;;30.30;3.65;;;;;;;;;;5085161;28;20100;-70
2023/12/10 10:16:22;;;;;;;37.67;3.50;;;;;;;;;;5097463;28;20048;-71
2023/12/10 10:18:49;;;;;;;33.75;3.30;;;;;;;;;;5106951;28;20423;-70
2023/12/10 10:21:16;;;;;;;44.25;4.05;;;;;;;;;;5105347;28;20051;-70
2023/12/10 10:23:44;;;;;;;42.25;3.97;;;;;;;;;;5089204;28;20061;-71
2023/12/10 10:26:12;;;;;;;51.00;4.40;;;;;;;;;;5081166;28;20047;-70
2023/12/10 10:28:40;;;;;;;35.20;3.38;;;;;;;;;;5102647;28;20126;-71
2023/12/10 10:31:10;;;;;;;38.17;3.83;;;;;;;;;;5108818;28;20055;-70
2023/12/10 10:33:38;;;;;;;34.88;3.28;;;;;;;;;;5108684;28;20040;-71
2023/12/10 10:36:06;;;;;;;31.75;3.78;;;;;;;;;;5110237;28;20047;-70
2023/12/10 10:38:34;;;;;;;45.85;4.38;;;;;;;;;;5090763;28;20410;-70
2023/12/10 10:41:02;;;;;;;32.53;4.18;;;;;;;;;;5105544;28;20056;-71
2023/12/10 10:43:28;;;;;;;50.30;4.32;;;;;;;;;;5102099;28;20548;-70
2023/12/10 10:45:57;;;;;;;34.60;3.83;;;;;;;;;;5087201;28;20052;-70
2023/12/10 10:48:26;;;;;;;37.38;4.03;;;;;;;;;;5091164;28;20050;-70
2023/12/10 10:50:53;;;;;;;53.17;4.47;;;;;;;;;;5098023;28;20044;-71
2023/12/10 10:53:22;;;;;;;38.58;4.07;;;;;;;;;;5107282;28;20051;-70
2023/12/10 10:55:49;;;;;;;33.03;2.83;;;;;;;;;;5089920;28;20143;-70
2023/12/10 10:58:27;;;;;;;28.67;4.75;;;;;;;;;;5106531;28;20052;-71
2023/12/10 11:00:54;;;;;;;42.83;3.75;;;;;;;;;;5102470;28;20124;-71
2023/12/10 11:03:26;;;;;;;34.17;4.40;;;;;;;;;;5103546;28;20051;-70
2023/12/10 11:05:55;;;;;;;31.55;3.67;;;;;;;;;;5103305;28;20053;-70
2023/12/10 11:08:23;;;;;;;34.58;3.65;;;;;;;;;;5100490;28;20047;-70
2023/12/10 11:10:56;;;;;;;40.55;3.38;;;;;;;;;;5099055;28;20072;-71
2023/12/10 11:13:38;;;;;;;49.53;3.50;;;;;;;;;;5097608;28;20502;-71
2023/12/10 11:16:06;;;;;;;31.60;3.83;;;;;;;;;;5095785;28;20431;-70
2023/12/10 11:18:50;;;;;;;44.50;3.97;;;;;;;;;;5086907;28;20047;-74
2023/12/10 11:21:17;;;;;;;40.08;3.88;;;;;;;;;;5078985;28;20051;-70
2023/12/10 11:23:45;;;;;;;29.58;3.13;;;;;;;;;;5100259;28;20134;-70
2023/12/10 11:26:13;;;;;;;33.35;3.78;;;;;;;;;;5084743;28;20043;-71
2023/12/10 11:28:40;;;;;;;40.70;4.55;;;;;;;;;;5106215;28;20048;-71
2023/12/10 11:31:08;;;;;;;43.13;3.90;;;;;;;;;;5107081;28;20079;-71
2023/12/10 11:33:40;;;;;;;39.08;4.50;;;;;;;;;;5102290;28;20052;-71
2023/12/10 11:36:08;;;;;;;41.63;3.63;;;;;;;;;;5103090;28;20100;-71
2023/12/10 11:38:35;;;;;;;43.53;3.97;;;;;;;;;;5099049;28;20050;-70
2023/12/10 11:41:03;;;;;;;43.08;3.80;;;;;;;;;;5091249;28;20044;-70
2023/12/10 11:43:30;;;;;;;33.78;3.67;;;;;;;;;;5103972;28;20046;-71
2023/12/10 11:45:57;;;;;;;30.55;3.58;;;;;;;;;;5105095;28;20421;-71
2023/12/10 11:48:25;;;;;;;28.63;3.53;;;;;;;;;;5090258;28;20131;-71
2023/12/10 11:50:54;;;;;;;38.83;4.35;;;;;;;;;;5087398;28;20048;-71
2023/12/10 11:53:21;;;;;;;27.55;3.67;;;;;;;;;;5086954;28;20060;-70
2023/12/10 11:55:51;;;;;;;45.10;3.72;;;;;;;;;;5084902;28;20048;-71
2023/12/10 11:58:26;;;;;;;35.13;4.25;;;;;;;;;;5086608;28;20062;-71
2023/12/10 12:00:59;;;;;;;44.72;4.32;;;;;;;;;;5083158;28;20044;-71
2023/12/10 12:03:27;;;;;;;34.63;4.05;;;;;;;;;;5104385;28;20070;-71
2023/12/10 12:05:56;;;;;;;39.33;3.95;;;;;;;;;;5084689;28;20059;-71
2023/12/10 12:08:26;;;;;;;34.25;4.65;;;;;;;;;;5085001;28;20047;-71
2023/12/10 12:10:53;;;;;;;29.55;2.83;;;;;;;;;;5092202;28;20044;-71
2023/12/10 12:13:21;;;;;;;34.20;3.72;;;;;;;;;;5100813;28;20402;-70
2023/12/10 12:15:48;;;;;;;39.88;4.10;;;;;;;;;;5084921;28;20059;-71
2023/12/10 12:18:16;;;;;;;30.55;3.47;;;;;;;;;;5078770;28;20048;-71
2023/12/10 12:20:43;;;;;;;22.88;2.75;;;;;;;;;;5102846;28;20062;-71
2023/12/10 12:23:13;;;;;;;26.67;3.45;;;;;;;;;;5077352;28;20066;-71
2023/12/10 12:25:40;;;;;;;23.42;2.70;;;;;;;;;;5080642;28;20395;-70
2023/12/10 12:28:07;;;;;;;21.77;3.60;;;;;;;;;;5089114;28;20055;-71
2023/12/10 12:30:35;;;;;;;23.67;3.08;;;;;;;;;;5084311;28;20058;-71
2023/12/10 12:33:03;;;;;;;33.28;3.67;;;;;;;;;;5083980;28;20054;-70
2023/12/10 12:35:30;;;;;;;28.80;3.80;;;;;;;;;;5087675;28;20061;-71
2023/12/10 12:37:58;;;;;;;27.95;2.45;;;;;;;;;;5086679;28;20043;-70
2023/12/10 12:40:27;;;;;;;24.35;3.78;;;;;;;;;;5086473;28;20131;-71
2023/12/10 12:42:54;;;;;;;22.02;2.72;;;;;;;;;;5090463;28;20055;-70
2023/12/10 12:45:21;;;;;;;30.02;3.70;;;;;;;;;;5086792;28;20543;-71
2023/12/10 12:47:49;;;;;;;30.17;3.30;;;;;;;;;;5086947;28;20056;-71
2023/12/10 12:50:18;;;;;;;29.02;2.75;;;;;;;;;;5084743;28;20055;-71
2023/12/10 12:52:45;;;;;;;25.52;3.58;;;;;;;;;;5084983;28;20059;-70
2023/12/10 12:55:13;;;;;;;29.50;2.95;;;;;;;;;;5085153;28;20058;-70
2023/12/10 12:57:41;;;;;;;19.00;3.00;;;;;;;;;;5087689;28;20058;-71
2023/12/10 13:00:11;;;;;;;21.88;3.38;;;;;;;;;;5086065;28;20047;-70
2023/12/10 13:02:39;;;;;;;26.20;2.15;;;;;;;;;;5102731;28;20055;-71
2023/12/10 13:05:06;;;;;;;25.67;2.47;;;;;;;;;;5081538;28;20054;-70
2023/12/10 13:07:33;;;;;;;20.67;2.15;;;;;;;;;;5105535;28;20550;-71
2023/12/10 13:10:01;;;;;;;21.73;2.10;;;;;;;;;;5084458;28;20051;-71
2023/12/10 13:12:28;;;;;;;21.95;3.25;;;;;;;;;;5088637;28;20143;-70
2023/12/10 13:14:57;;;;;;;16.00;1.85;;;;;;;;;;5101077;28;20048;-70
2023/12/10 13:17:25;;;;;;;20.08;2.13;;;;;;;;;;5086041;28;20043;-70
2023/12/10 13:19:52;;;;;;;27.38;2.80;;;;;;;;;;5098920;28;20540;-71
2023/12/10 13:22:19;;;;;;;15.50;2.03;;;;;;;;;;5101276;28;20471;-70
2023/12/10 13:24:47;;;;;;;20.42;2.20;;;;;;;;;;5086160;28;20074;-70
2023/12/10 13:27:15;;;;;;;24.50;2.50;;;;;;;;;;5081030;28;20048;-72
2023/12/10 13:29:43;;;;;;;21.95;2.10;;;;;;;;;;5086072;28;20052;-72
2023/12/10 13:32:11;;;;;;;19.27;2.33;;;;;;;;;;5083978;28;20057;-71
2023/12/10 13:34:39;;;;;;;21.83;3.45;;;;;;;;;;5088555;28;20048;-71
2023/12/10 13:37:06;;;;;;;26.90;3.20;;;;;;;;;;5106521;28;20055;-71
2023/12/10 13:39:33;;;;;;;22.13;2.72;;;;;;;;;;5105849;28;20075;-74
2023/12/10 13:42:01;;;;;;;29.25;2.47;;;;;;;;;;5088696;28;20161;-73
2023/12/10 13:44:28;;;;;;;22.95;2.55;;;;;;;;;;5078772;28;20048;-74
2023/12/10 13:46:55;;;;;;;27.55;2.83;;;;;;;;;;5082382;28;20479;-73
2023/12/10 13:49:24;;;;;;;26.92;3.22;;;;;;;;;;5081808;28;20048;-73
2023/12/10 13:51:51;;;;;;;17.08;2.42;;;;;;;;;;5085340;28;20054;-74
2023/12/10 13:54:19;;;;;;;21.63;2.22;;;;;;;;;;5082567;28;20044;-73
2023/12/10 13:56:46;;;;;;;25.92;2.13;;;;;;;;;;5099722;28;20051;-73
2023/12/10 13:59:13;;;;;;;17.05;2.30;;;;;;;;;;5090293;28;20490;-73
2023/12/10 14:01:41;;;;;;;19.42;2.08;;;;;;;;;;5088632;28;20075;-74
2023/12/10 14:04:08;;;;;;;20.67;2.97;;;;;;;;;;5091882;28;20051;-74
2023/12/10 14:06:37;;;;;;;17.98;2.38;;;;;;;;;;5090217;28;20040;-74
2023/12/10 14:09:04;;;;;;;19.95;1.83;;;;;;;;;;5088363;28;20051;-73
2023/12/10 14:11:32;;;;;;;18.95;2.15;;;;;;;;;;5108807;28;20372;-74
2023/12/10 14:13:59;;;;;;;17.02;2.03;;;;;;;;;;5092157;28;20495;-73
2023/12/10 14:16:29;;;;;;;13.82;1.80;;;;;;;;;;5094097;28;20051;-74
2023/12/10 14:18:56;;;;;;;17.98;1.90;;;;;;;;;;5089359;28;20074;-74
2023/12/10 14:21:27;;;;;;;17.38;2.08;;;;;;;;;;5082189;28;20127;-73
2023/12/10 14:23:55;;;;;;;20.92;2.17;;;;;;;;;;5089588;28;20047;-73
2023/12/10 14:26:23;;;;;;;24.25;2.72;;;;;;;;;;5081705;28;20052;-73
2023/12/10 14:28:51;;;;;;;12.18;1.80;;;;;;;;;;5089115;28;20056;-73
2023/12/10 14:31:19;;;;;;;17.25;2.13;;;;;;;;;;5087268;28;20044;-73
2023/12/10 14:33:46;;;;;;;22.73;2.35;;;;;;;;;;5085412;28;20055;-73